Hoppet Af Brantevik — SKWL — position and weather

sailwx.info

Track history (hours):
 
Tides and Currents Weather Stations Pressure Air Temp Water Temp Dewpoint Dewpoint Depression Visibility Wind Speed Wind Dir Waves Ship Positions

Hoppet Af Brantevik

Last reported at 2014-Jul-24 03:28 UTC. Time now 2014-Jul-24 03:58 UTC.
Position N 55°31' E 014°21'.

Length 17 m; draft 2.2 m.

Type: Ship. MMSI: 265525900.

Date/timePositionNaut miles runAvg speedWind from/ knotsBaromVisibWave heightAir tempDewpointWater temp
2014-Jul-24 03:28N 55°31' E 014°21'0 0.0
2014-Jul-24 02:31N 55°31' E 014°21'0 0.0
2014-Jul-24 01:28N 55°31' E 014°21'0 0.0
2014-Jul-24 00:31N 55°31' E 014°21'0 0.0
2014-Jul-23 23:22N 55°31' E 014°21'0 0.0
2014-Jul-23 19:25N 55°31' E 014°21'1 0.2
2014-Jul-23 15:33N 55°30' E 014°22'  
2014-Jul-21 05:14N 55°31' E 014°21'0 0.0
2014-Jul-21 02:23N 55°31' E 014°21'0 0.0
2014-Jul-21 01:32N 55°31' E 014°21'0 0.0
2014-Jul-21 00:14N 55°31' E 014°21'0 0.0
2014-Jul-20 22:08N 55°31' E 014°21'0 0.0
2014-Jul-20 21:32N 55°31' E 014°21'0 0.0
2014-Jul-20 20:14N 55°31' E 014°21'0 0.0
2014-Jul-20 19:32N 55°31' E 014°21'0 0.0
2014-Jul-20 18:32N 55°31' E 014°21'0 0.0
2014-Jul-20 17:23N 55°31' E 014°21'0 0.0
2014-Jul-20 16:32N 55°31' E 014°21'0 0.0
2014-Jul-20 15:26N 55°31' E 014°21'0 0.0
2014-Jul-20 14:23N 55°31' E 014°21'0 0.0
2014-Jul-20 08:29N 55°31' E 014°21'0 0.0
2014-Jul-20 07:23N 55°31' E 014°21'0 0.0
2014-Jul-20 03:32N 55°31' E 014°21'0 0.0
2014-Jul-20 02:23N 55°31' E 014°21'0 0.0
2014-Jul-20 01:17N 55°31' E 014°21'0 0.0
2014-Jul-20 00:32N 55°31' E 014°21'0 0.0
2014-Jul-19 23:32N 55°31' E 014°21'0 0.0
2014-Jul-19 22:32N 55°31' E 014°21'0 0.0
2014-Jul-19 21:29N 55°31' E 014°21'0 0.0
2014-Jul-19 20:23N 55°31' E 014°21'0 0.0
2014-Jul-19 19:26N 55°31' E 014°21'0 0.0
2014-Jul-19 18:29N 55°31' E 014°21'0 0.0
2014-Jul-19 17:32N 55°31' E 014°21'0 0.0
2014-Jul-19 16:32N 55°31' E 014°21'0 0.0
2014-Jul-19 15:32N 55°31' E 014°21'0 0.0
2014-Jul-19 14:32N 55°31' E 014°21'0 0.0
2014-Jul-19 13:32N 55°31' E 014°21'0 0.0
2014-Jul-19 12:29N 55°31' E 014°21'0 0.0
2014-Jul-19 11:29N 55°31' E 014°21'0 0.0
2014-Jul-19 08:32N 55°31' E 014°21'0 0.0
2014-Jul-19 07:29N 55°31' E 014°21'0 0.0
2014-Jul-19 06:29N 55°31' E 014°21'0 0.0
2014-Jul-19 05:17N 55°31' E 014°21'0 0.0
2014-Jul-19 02:26N 55°31' E 014°21'0 0.0
2014-Jul-19 01:26N 55°31' E 014°21'0 0.0
2014-Jul-19 00:32N 55°31' E 014°21'0 0.0
2014-Jul-18 23:23N 55°31' E 014°21'0 0.0
2014-Jul-18 22:32N 55°31' E 014°21'0 0.0
2014-Jul-18 21:32N 55°31' E 014°21'0 0.0
2014-Jul-18 20:32N 55°31' E 014°21'0 0.0
2014-Jul-18 19:32N 55°31' E 014°21'1 1.2
2014-Jul-18 18:33N 55°30' E 014°23'7 6.9
2014-Jul-18 17:33N 55°28' E 014°34'7 6.8
2014-Jul-18 16:33N 55°25' E 014°45'7 6.8
2014-Jul-18 15:33N 55°23' E 014°56'7 6.5
2014-Jul-18 14:28N 55°20' E 015°07'1 1.0
2014-Jul-18 13:33N 55°19' E 015°09'1 1.3
2014-Jul-18 12:32N 55°19' E 015°11'0 0.0
2014-Jul-18 11:32N 55°19' E 015°11'0 0.0
2014-Jul-18 10:32N 55°19' E 015°11'0 0.0
2014-Jul-18 09:32N 55°19' E 015°11'0 0.0
2014-Jul-18 08:33N 55°19' E 015°11'5 5.2
2014-Jul-18 07:33N 55°21' E 015°03'7 7.1
2014-Jul-18 06:33N 55°24' E 014°51'7 7.2
2014-Jul-18 05:33N 55°27' E 014°39'7 7.3
2014-Jul-18 04:33N 55°29' E 014°27'4 3.9
2014-Jul-18 03:31N 55°31' E 014°21'0 0.0
2014-Jul-18 02:19N 55°31' E 014°21'0 0.0
2014-Jul-18 01:25N 55°31' E 014°21'0 0.0
2014-Jul-18 00:28N 55°31' E 014°21'0 0.0
2014-Jul-17 22:31N 55°31' E 014°21'  
2014-Jul-15 07:14N 56°09' E 015°14'3 4.0
2014-Jul-15 06:33N 56°07' E 015°17'6 6.3
2014-Jul-15 05:34N 56°04' E 015°27'5 5.0
2014-Jul-15 04:33N 56°08' E 015°33'2 2.2
2014-Jul-15 03:33N 56°10' E 015°36'0 0.0
2014-Jul-15 02:33N 56°10' E 015°36'0 0.0
2014-Jul-15 01:33N 56°10' E 015°36'0 0.0
2014-Jul-15 00:33N 56°10' E 015°36'0 0.0
2014-Jul-14 23:33N 56°10' E 015°36'0 0.0
2014-Jul-14 22:33N 56°10' E 015°36'0 0.0
2014-Jul-14 21:33N 56°10' E 015°36'0 0.0
2014-Jul-14 20:33N 56°10' E 015°36'0 0.0
2014-Jul-14 19:33N 56°10' E 015°36'0 0.0
2014-Jul-14 18:33N 56°10' E 015°36'0 0.0
2014-Jul-14 17:33N 56°10' E 015°36'0 0.0
2014-Jul-14 16:33N 56°10' E 015°36'0 0.0
2014-Jul-14 15:33N 56°10' E 015°36'0 0.0
2014-Jul-14 14:33N 56°10' E 015°36'0 0.0
2014-Jul-14 13:33N 56°10' E 015°36'0 0.0
2014-Jul-14 12:33N 56°10' E 015°36'0 0.0
2014-Jul-14 11:33N 56°10' E 015°36'0 0.0
2014-Jul-14 10:33N 56°10' E 015°36'0 0.0
2014-Jul-14 09:33N 56°10' E 015°36'4 4.2
2014-Jul-14 08:33N 56°09' E 015°43'5 4.6
2014-Jul-14 07:33N 56°05' E 015°48'4 4.0
2014-Jul-14 06:33N 56°05' E 015°56'6 5.8
2014-Jul-14 05:33N 56°09' E 016°03'  
Track history (hours):
 
Tides and Currents Weather Stations Pressure Air Temp Water Temp Dewpoint Dewpoint Depression Visibility Wind Speed Wind Dir Waves Ship Positions

Hoppet Af Brantevik

Last reported at 2014-Jul-24 03:28 UTC. Time now 2014-Jul-24 03:58 UTC.
Position N 55°31' E 014°21'.

Length 17 m; draft 2.2 m.

Type: Ship. MMSI: 265525900.

Date/timePositionNaut miles runAvg speedWind from/ knotsBaromVisibWave heightAir tempDewpointWater temp
2014-Jul-24 03:28N 55°31' E 014°21'0 0.0
2014-Jul-24 02:31N 55°31' E 014°21'0 0.0
2014-Jul-24 01:28N 55°31' E 014°21'0 0.0
2014-Jul-24 00:31N 55°31' E 014°21'0 0.0
2014-Jul-23 23:22N 55°31' E 014°21'0 0.0
2014-Jul-23 19:25N 55°31' E 014°21'1 0.2
2014-Jul-23 15:33N 55°30' E 014°22'  
2014-Jul-21 05:14N 55°31' E 014°21'0 0.0
2014-Jul-21 02:23N 55°31' E 014°21'0 0.0
2014-Jul-21 01:32N 55°31' E 014°21'0 0.0
2014-Jul-21 00:14N 55°31' E 014°21'0 0.0
2014-Jul-20 22:08N 55°31' E 014°21'0 0.0
2014-Jul-20 21:32N 55°31' E 014°21'0 0.0
2014-Jul-20 20:14N 55°31' E 014°21'0 0.0
2014-Jul-20 19:32N 55°31' E 014°21'0 0.0
2014-Jul-20 18:32N 55°31' E 014°21'0 0.0
2014-Jul-20 17:23N 55°31' E 014°21'0 0.0
2014-Jul-20 16:32N 55°31' E 014°21'0 0.0
2014-Jul-20 15:26N 55°31' E 014°21'0 0.0
2014-Jul-20 14:23N 55°31' E 014°21'0 0.0
2014-Jul-20 08:29N 55°31' E 014°21'0 0.0
2014-Jul-20 07:23N 55°31' E 014°21'0 0.0
2014-Jul-20 03:32N 55°31' E 014°21'0 0.0
2014-Jul-20 02:23N 55°31' E 014°21'0 0.0
2014-Jul-20 01:17N 55°31' E 014°21'0 0.0
2014-Jul-20 00:32N 55°31' E 014°21'0 0.0
2014-Jul-19 23:32N 55°31' E 014°21'0 0.0
2014-Jul-19 22:32N 55°31' E 014°21'0 0.0
2014-Jul-19 21:29N 55°31' E 014°21'0 0.0
2014-Jul-19 20:23N 55°31' E 014°21'0 0.0
2014-Jul-19 19:26N 55°31' E 014°21'0 0.0
2014-Jul-19 18:29N 55°31' E 014°21'0 0.0
2014-Jul-19 17:32N 55°31' E 014°21'0 0.0
2014-Jul-19 16:32N 55°31' E 014°21'0 0.0
2014-Jul-19 15:32N 55°31' E 014°21'0 0.0
2014-Jul-19 14:32N 55°31' E 014°21'0 0.0
2014-Jul-19 13:32N 55°31' E 014°21'0 0.0
2014-Jul-19 12:29N 55°31' E 014°21'0 0.0
2014-Jul-19 11:29N 55°31' E 014°21'0 0.0
2014-Jul-19 08:32N 55°31' E 014°21'0 0.0
2014-Jul-19 07:29N 55°31' E 014°21'0 0.0
2014-Jul-19 06:29N 55°31' E 014°21'0 0.0
2014-Jul-19 05:17N 55°31' E 014°21'0 0.0
2014-Jul-19 02:26N 55°31' E 014°21'0 0.0
2014-Jul-19 01:26N 55°31' E 014°21'0 0.0
2014-Jul-19 00:32N 55°31' E 014°21'0 0.0
2014-Jul-18 23:23N 55°31' E 014°21'0 0.0
2014-Jul-18 22:32N 55°31' E 014°21'0 0.0
2014-Jul-18 21:32N 55°31' E 014°21'0 0.0
2014-Jul-18 20:32N 55°31' E 014°21'0 0.0
2014-Jul-18 19:32N 55°31' E 014°21'1 1.2
2014-Jul-18 18:33N 55°30' E 014°23'7 6.9
2014-Jul-18 17:33N 55°28' E 014°34'7 6.8
2014-Jul-18 16:33N 55°25' E 014°45'7 6.8
2014-Jul-18 15:33N 55°23' E 014°56'7 6.5
2014-Jul-18 14:28N 55°20' E 015°07'1 1.0
2014-Jul-18 13:33N 55°19' E 015°09'1 1.3
2014-Jul-18 12:32N 55°19' E 015°11'0 0.0
2014-Jul-18 11:32N 55°19' E 015°11'0 0.0
2014-Jul-18 10:32N 55°19' E 015°11'0 0.0
2014-Jul-18 09:32N 55°19' E 015°11'0 0.0
2014-Jul-18 08:33N 55°19' E 015°11'5 5.2
2014-Jul-18 07:33N 55°21' E 015°03'7 7.1
2014-Jul-18 06:33N 55°24' E 014°51'7 7.2
2014-Jul-18 05:33N 55°27' E 014°39'7 7.3
2014-Jul-18 04:33N 55°29' E 014°27'4 3.9
2014-Jul-18 03:31N 55°31' E 014°21'0 0.0
2014-Jul-18 02:19N 55°31' E 014°21'0 0.0
2014-Jul-18 01:25N 55°31' E 014°21'0 0.0
2014-Jul-18 00:28N 55°31' E 014°21'0 0.0
2014-Jul-17 22:31N 55°31' E 014°21'  
2014-Jul-15 07:14N 56°09' E 015°14'3 4.0
2014-Jul-15 06:33N 56°07' E 015°17'6 6.3
2014-Jul-15 05:34N 56°04' E 015°27'5 5.0
2014-Jul-15 04:33N 56°08' E 015°33'2 2.2
2014-Jul-15 03:33N 56°10' E 015°36'0 0.0
2014-Jul-15 02:33N 56°10' E 015°36'0 0.0
2014-Jul-15 01:33N 56°10' E 015°36'0 0.0
2014-Jul-15 00:33N 56°10' E 015°36'0 0.0
2014-Jul-14 23:33N 56°10' E 015°36'0 0.0
2014-Jul-14 22:33N 56°10' E 015°36'0 0.0
2014-Jul-14 21:33N 56°10' E 015°36'0 0.0
2014-Jul-14 20:33N 56°10' E 015°36'0 0.0
2014-Jul-14 19:33N 56°10' E 015°36'0 0.0
2014-Jul-14 18:33N 56°10' E 015°36'0 0.0
2014-Jul-14 17:33N 56°10' E 015°36'0 0.0
2014-Jul-14 16:33N 56°10' E 015°36'0 0.0
2014-Jul-14 15:33N 56°10' E 015°36'0 0.0
2014-Jul-14 14:33N 56°10' E 015°36'0 0.0
2014-Jul-14 13:33N 56°10' E 015°36'0 0.0
2014-Jul-14 12:33N 56°10' E 015°36'0 0.0
2014-Jul-14 11:33N 56°10' E 015°36'0 0.0
2014-Jul-14 10:33N 56°10' E 015°36'0 0.0
2014-Jul-14 09:33N 56°10' E 015°36'4 4.2
2014-Jul-14 08:33N 56°09' E 015°43'5 4.6
2014-Jul-14 07:33N 56°05' E 015°48'4 4.0
2014-Jul-14 06:33N 56°05' E 015°56'6 5.8
2014-Jul-14 05:33N 56°09' E 016°03'  

Dump ship's entire track history